FBKE

Kasane Airport

Kasane, Botswana
METAR FBKE 201100Z 36006KT 310V040 9999 BKN030 FEW035CB 28/20 Q1019
Observed Flight Rules
Jan-20 @ 11:00 UTC (43 minutes ago) Marginal Visual Flight Rules
Wind Visibility Clouds
360° at 6 knots 10,000+ meters
  • Broken at 3,000' AGL
  • Few at 3,500' AGL
Temperatures Readings
Current 28°C / 82°F
Dewpoint 20°C / 68°F
Humidity 62%
Altimeter 30.09" Hg
Pressure 1018.92 hPa
Elevation 1000
METAR FBKE 201100Z 36006KT 310V040 9999 BKN030 FEW035CB 28/20 Q1019
Observed Flight Rules
Jan-20 @ 11:00 UTC
(43 minutes ago)
MVFR
Wind Visibility
360° at 6 knots 10,000+ meters
Clouds
  • Broken at 3,000' AGL
  • Few at 3,500' AGL
Temperature Dewpoint
28°C / 82°F 20°C / 68°F
Humidity Altimeter Pressure
62% 30.09" Hg 1018.92 hPa